Time;durP1;ratioP1;P1;durP2;ratioP2;P2;SDS_P1;SDS_P2;PMS_P1;PMS_P2;Temp;Humidity;BMP_temperature;BMP_pressure;BME280_temperature;BME280_humidity;BME280_pressure;Samples;Min_cycle;Max_cycle;Signal;HPM_P1;HPM_P2
2022/01/14 00:14:58;;;;;;;125.70;65.55;;;141.10;2176.00;;;;;;4954134;28;20097;-78
2022/01/14 00:18:21;;;;;;;138.68;72.05;;;141.30;2176.00;;;;;;4967577;29;20463;-79
2022/01/14 00:32:09;;;;;;;135.15;69.07;;;141.20;2176.00;;;;;;4962095;29;20038;-78
2022/01/14 00:38:53;;;;;;;160.93;81.80;;;141.40;2176.00;;;;;;4961173;29;20034;-78
2022/01/14 00:46:22;;;;;;;156.95;76.03;;;141.50;2176.00;;;;;;4961874;29;20454;-79
2022/01/14 00:52:49;;;;;;;151.90;73.82;;;141.60;2176.00;;;;;;4979954;28;20033;-79
2022/01/14 00:56:19;;;;;;;157.02;77.97;;;141.50;2176.00;;;;;;4922957;29;20044;-81
2022/01/14 00:59:56;;;;;;;132.35;65.47;;;141.50;2176.00;;;;;;4921026;29;20039;-78
2022/01/14 01:03:24;;;;;;;147.10;71.95;;;166.40;2176.00;;;;;;4776289;30;20203;-78
2022/01/14 01:10:46;;;;;;;153.35;74.10;;;166.40;2176.00;;;;;;4721906;30;20067;-79
2022/01/14 01:14:24;;;;;;;146.95;72.05;;;166.40;2176.00;;;;;;4688719;30;20034;-78
2022/01/14 01:17:58;;;;;;;162.82;77.30;;;166.60;2176.00;;;;;;4650620;30;20062;-79
2022/01/14 01:24:49;;;;;;;158.50;73.22;;;166.60;2176.00;;;;;;4689453;30;20071;-78
2022/01/14 01:28:59;;;;;;;152.10;71.20;;;166.70;2176.00;;;;;;4708625;30;20038;-79
2022/01/14 01:32:16;;;;;;;157.23;74.50;;;166.70;2176.00;;;;;;4669432;30;20066;-79
2022/01/14 01:35:39;;;;;;;132.60;63.13;;;166.50;2176.00;;;;;;4669648;30;20035;-79
2022/01/14 01:39:15;;;;;;;125.47;57.30;;;166.90;2176.00;;;;;;4635931;30;20042;-79
2022/01/14 01:56:37;;;;;;;140.52;65.72;;;167.30;2176.00;;;;;;4762721;30;20072;-79
2022/01/14 02:03:45;;;;;;;117.95;53.67;;;167.10;2176.00;;;;;;4880868;29;20051;-78
2022/01/14 02:10:11;;;;;;;135.15;65.22;;;192.00;2176.00;;;;;;4870554;29;20051;-78
2022/01/14 02:13:51;;;;;;;156.50;70.75;;;167.10;2176.00;;;;;;4858247;29;20044;-78
2022/01/14 02:31:17;;;;;;;119.45;57.55;;;192.10;2176.00;;;;;;4830945;29;20105;-78
2022/01/14 02:35:02;;;;;;;135.65;63.03;;;167.30;2176.00;;;;;;4841354;29;20045;-78
2022/01/14 02:41:39;;;;;;;162.60;75.70;;;167.00;2176.00;;;;;;4850878;29;20036;-78
2022/01/14 02:45:13;;;;;;;157.35;69.80;;;167.10;2176.00;;;;;;4849938;29;20053;-79
2022/01/14 02:48:37;;;;;;;158.57;74.00;;;167.00;2176.00;;;;;;4818166;29;20080;-79
2022/01/14 02:59:17;;;;;;;121.63;56.55;;;166.70;2176.00;;;;;;4815935;29;20033;-78
2022/01/14 03:02:08;;;;;;;133.70;59.30;;;167.00;2176.00;;;;;;4826368;29;20057;-76
2022/01/14 03:04:39;;;;;;;139.00;60.78;;;167.00;2176.00;;;;;;4845064;29;20060;-78
2022/01/14 03:07:06;;;;;;;139.52;61.28;;;166.90;2176.00;;;;;;4871307;29;20049;-77
2022/01/14 03:09:34;;;;;;;130.00;60.60;;;167.30;2176.00;;;;;;4951366;29;20035;-77
2022/01/14 03:12:02;;;;;;;147.85;68.05;;;167.10;2176.00;;;;;;4948114;29;20039;-77
2022/01/14 03:22:32;;;;;;;137.43;65.32;;;166.90;2176.00;;;;;;4960352;28;20025;-80
2022/01/14 03:28:33;;;;;;;136.88;68.03;;;166.70;2176.00;;;;;;4921818;29;20038;-79
2022/01/14 03:42:19;;;;;;;90.38;42.95;;;167.00;2176.00;;;;;;4889735;29;20438;-79
2022/01/14 03:49:18;;;;;;;114.32;47.92;;;192.10;2176.00;;;;;;4870252;29;20040;-79
2022/01/14 04:20:50;;;;;;;94.68;46.80;;;192.00;2176.00;;;;;;4810609;29;20045;-79
2022/01/14 04:24:10;;;;;;;80.97;38.72;;;167.20;2176.00;;;;;;4812416;29;20117;-79
2022/01/14 04:31:33;;;;;;;87.25;40.20;;;192.20;2176.00;;;;;;4830729;29;20029;-79
2022/01/14 04:45:43;;;;;;;107.85;51.78;;;166.90;2176.00;;;;;;4805330;29;20595;-79
2022/01/14 05:02:27;;;;;;;127.72;58.25;;;167.00;2176.00;;;;;;4792841;30;20096;-79
2022/01/14 06:12:51;;;;;;;115.72;57.58;;;166.90;2176.00;;;;;;4941867;29;20087;-79
2022/01/14 06:16:27;;;;;;;110.70;61.70;;;166.80;2176.00;;;;;;4836493;29;20067;-79
2022/01/14 06:19:39;;;;;;;123.35;64.25;;;166.80;2176.00;;;;;;4854476;29;20078;-79
2022/01/14 06:26:37;;;;;;;118.63;62.42;;;166.80;2176.00;;;;;;4813405;29;20038;-79
2022/01/14 06:37:35;;;;;;;135.52;68.50;;;166.50;2176.00;;;;;;4760393;30;20112;-79
2022/01/14 06:41:19;;;;;;;117.00;57.83;;;141.70;2176.00;;;;;;4716484;30;20491;-80
2022/01/14 06:48:17;;;;;;;129.07;62.72;;;166.40;2176.00;;;;;;4745755;30;20074;-79
2022/01/14 06:59:03;;;;;;;112.97;52.80;;;141.60;2176.00;;;;;;4714184;30;20044;-78
2022/01/14 07:02:44;;;;;;;142.55;70.53;;;141.50;2176.00;;;;;;4700017;30;20070;-79
2022/01/14 07:10:06;;;;;;;332.80;156.60;;;141.20;2176.00;;;;;;4723921;30;20124;-79
2022/01/14 09:11:49;;;;;;;224.82;122.82;;;89.60;2201.60;;;;;;4974273;29;20107;-78
2022/01/14 09:18:41;;;;;;;205.07;106.07;;;89.60;2201.60;;;;;;5054137;28;20032;-78
2022/01/14 09:22:25;;;;;;;166.20;96.10;;;64.80;2201.60;;;;;;4997525;28;20037;-78
2022/01/14 09:25:51;;;;;;;210.45;120.50;;;64.80;2201.60;;;;;;4949364;28;20035;-79
2022/01/14 09:29:31;;;;;;;199.07;109.18;;;64.70;2201.60;;;;;;4981551;28;20015;-79
2022/01/14 09:46:32;;;;;;;161.57;92.05;;;64.40;2201.60;;;;;;4835550;29;20065;-80
2022/01/14 10:04:39;;;;;;;198.48;117.47;;;39.30;2201.60;;;;;;4751876;30;20083;-78
2022/01/14 10:11:23;;;;;;;188.02;106.47;;;38.80;2201.60;;;;;;4838797;29;20021;-80
2022/01/14 10:14:57;;;;;;;165.75;92.97;;;38.60;2201.60;;;;;;4814762;29;20039;-80
2022/01/14 10:18:21;;;;;;;149.27;87.82;;;38.50;2201.60;;;;;;4754630;30;20043;-83
2022/01/14 10:28:21;;;;;;;116.35;68.78;;;13.40;2201.60;;;;;;4831297;29;20033;-83
2022/01/14 10:31:34;;;;;;;107.40;64.13;;;13.30;2201.60;;;;;;4844607;29;20534;-84
2022/01/14 10:34:53;;;;;;;94.63;52.83;;;13.40;2201.60;;;;;;4901369;29;20036;-84
2022/01/14 10:38:23;;;;;;;115.82;62.42;;;13.30;2201.60;;;;;;4912813;29;20387;-85
2022/01/14 10:41:29;;;;;;;62.50;38.22;;;13.20;2201.60;;;;;;4936487;29;20121;-84
2022/01/14 10:48:39;;;;;;;105.85;54.10;;;13.40;2201.60;;;;;;4936939;29;20045;-86
2022/01/14 10:51:25;;;;;;;102.68;59.25;;;13.10;2201.60;;;;;;4946842;29;20047;-87
2022/01/14 10:53:53;;;;;;;107.30;63.92;;;13.00;2201.60;;;;;;4940838;29;20147;-85
2022/01/14 11:02:48;;;;;;;102.95;56.70;;;0.00;2201.60;;;;;;5036967;28;20036;-86
2022/01/14 11:05:22;;;;;;;115.60;63.63;;;0.10;2201.60;;;;;;5023553;28;20464;-81
2022/01/14 11:07:50;;;;;;;98.88;56.00;;;0.30;2201.60;;;;;;5037364;28;20017;-80
2022/01/14 11:10:28;;;;;;;88.70;52.92;;;0.40;2201.60;;;;;;5037589;28;20024;-76
2022/01/14 11:12:58;;;;;;;80.63;46.85;;;0.50;2201.60;;;;;;5036182;28;20119;-82
2022/01/14 11:15:26;;;;;;;73.57;38.85;;;0.60;2201.60;;;;;;5053561;28;20021;-81
2022/01/14 11:17:55;;;;;;;63.05;36.53;;;0.40;2201.60;;;;;;5053904;28;20020;-78
2022/01/14 11:20:37;;;;;;;61.50;35.70;;;0.10;2201.60;;;;;;5040855;28;20021;-79
2022/01/14 11:23:15;;;;;;;60.80;38.58;;;0.60;2201.60;;;;;;5037499;28;20087;-81
2022/01/14 11:26:04;;;;;;;71.68;41.28;;;0.80;2201.60;;;;;;5037429;28;20020;-83
2022/01/14 11:28:35;;;;;;;67.97;41.25;;;0.90;2201.60;;;;;;5036761;28;20021;-78
2022/01/14 11:31:25;;;;;;;58.97;33.40;;;0.90;2201.60;;;;;;5037320;28;20494;-80
2022/01/14 11:33:51;;;;;;;54.53;32.58;;;25.60;2201.60;;;;;;5037301;28;20025;-84
2022/01/14 11:36:18;;;;;;;66.75;41.22;;;25.90;2201.60;;;;;;5036621;28;20445;-83
2022/01/14 11:38:45;;;;;;;74.00;49.15;;;26.10;2201.60;;;;;;5037204;28;20052;-83
2022/01/14 11:41:20;;;;;;;75.75;44.83;;;26.20;2201.60;;;;;;5037115;28;20090;-82
2022/01/14 11:43:55;;;;;;;67.47;41.05;;;26.50;2201.60;;;;;;5036698;28;20522;-83
2022/01/14 11:46:30;;;;;;;80.72;51.85;;;26.50;2201.60;;;;;;5037101;28;20033;-84
2022/01/14 11:48:57;;;;;;;80.15;50.65;;;51.50;2227.20;;;;;;5036445;28;20021;-82
2022/01/14 11:51:23;;;;;;;75.90;48.35;;;51.80;2227.20;;;;;;5036960;28;20106;-81
2022/01/14 11:53:54;;;;;;;76.28;45.25;;;52.00;2227.20;;;;;;5036878;28;20090;-84
2022/01/14 11:56:32;;;;;;;77.28;47.45;;;52.10;2227.20;;;;;;5036070;28;20372;-81
2022/01/14 11:59:20;;;;;;;72.75;45.88;;;76.90;2227.20;;;;;;5036514;28;20060;-82
2022/01/14 12:01:53;;;;;;;73.35;45.30;;;77.10;2227.20;;;;;;5037098;28;20031;-82
2022/01/14 12:04:19;;;;;;;64.50;39.10;;;77.30;2227.20;;;;;;5058613;28;20017;-81
2022/01/14 12:06:51;;;;;;;83.53;50.90;;;77.40;2227.20;;;;;;5043345;28;20021;-80
2022/01/14 12:09:33;;;;;;;80.63;48.58;;;77.60;2227.20;;;;;;5041244;28;20032;-81
2022/01/14 12:12:22;;;;;;;69.43;42.33;;;77.70;2227.20;;;;;;5054624;28;20024;-82
2022/01/14 12:14:56;;;;;;;72.40;45.70;;;102.60;2227.20;;;;;;5036376;28;20338;-80
2022/01/14 12:17:41;;;;;;;97.88;55.15;;;102.70;2227.20;;;;;;5036214;28;20334;-82
2022/01/14 12:20:11;;;;;;;81.60;51.17;;;102.70;2227.20;;;;;;5035890;28;20020;-79
2022/01/14 12:22:38;;;;;;;91.07;53.13;;;102.90;2227.20;;;;;;5036245;28;20041;-77
2022/01/14 12:25:06;;;;;;;72.82;48.33;;;103.10;2227.20;;;;;;5034950;28;20021;-77
2022/01/14 12:27:46;;;;;;;85.82;53.80;;;103.10;2227.20;;;;;;5051821;28;20025;-79
2022/01/14 12:30:18;;;;;;;60.70;38.10;;;102.80;2227.20;;;;;;5052073;28;20546;-82
2022/01/14 12:32:48;;;;;;;60.92;37.90;;;102.50;2227.20;;;;;;5052276;28;20029;-83
2022/01/14 12:35:15;;;;;;;57.00;34.33;;;102.70;2227.20;;;;;;5052300;28;20032;-78
2022/01/14 12:37:44;;;;;;;90.13;53.95;;;102.70;2227.20;;;;;;5053609;28;20016;-81
2022/01/14 12:40:17;;;;;;;79.68;49.30;;;102.90;2227.20;;;;;;5052520;28;20029;-83
2022/01/14 12:42:56;;;;;;;74.45;47.75;;;103.10;2227.20;;;;;;5052453;28;20396;-79
2022/01/14 12:45:52;;;;;;;70.20;43.15;;;103.10;2227.20;;;;;;5052141;28;20029;-81
2022/01/14 12:51:07;;;;;;;65.65;45.05;;;103.00;2227.20;;;;;;5053640;28;20036;-80
2022/01/14 12:53:33;;;;;;;73.95;45.40;;;103.30;2227.20;;;;;;5035761;28;20029;-82
2022/01/14 12:56:01;;;;;;;62.05;41.33;;;103.30;2227.20;;;;;;5035681;28;20021;-81
2022/01/14 12:58:30;;;;;;;60.90;41.03;;;103.30;2227.20;;;;;;5035759;28;20068;-83
2022/01/14 13:01:11;;;;;;;62.67;42.53;;;103.00;2227.20;;;;;;5035946;28;20031;-83
2022/01/14 13:03:38;;;;;;;67.07;44.08;;;103.10;2227.20;;;;;;5053133;28;20424;-85
2022/01/14 13:06:04;;;;;;;68.05;43.97;;;103.30;2227.20;;;;;;5035889;28;20036;-78
2022/01/14 13:08:30;;;;;;;74.80;45.95;;;128.10;2252.80;;;;;;5035936;28;20075;-83
2022/01/14 13:11:06;;;;;;;68.93;42.97;;;128.20;2252.80;;;;;;5053035;28;20021;-83
2022/01/14 13:13:32;;;;;;;71.45;44.67;;;128.20;2252.80;;;;;;5053719;28;20025;-85
2022/01/14 13:16:06;;;;;;;72.32;47.95;;;128.40;2252.80;;;;;;5035778;28;20017;-87
2022/01/14 13:18:43;;;;;;;80.70;53.17;;;128.40;2252.80;;;;;;5035204;28;20017;-84
2022/01/14 13:21:09;;;;;;;86.88;55.55;;;128.50;2252.80;;;;;;5035612;28;20059;-83
2022/01/14 13:23:35;;;;;;;76.70;47.85;;;128.20;2252.80;;;;;;5035945;28;20029;-83
2022/01/14 13:26:01;;;;;;;56.85;38.92;;;128.50;2252.80;;;;;;5035769;28;20027;-84
2022/01/14 13:28:27;;;;;;;68.20;44.33;;;128.80;2252.80;;;;;;5035340;28;20033;-83
2022/01/14 13:30:53;;;;;;;84.30;53.97;;;128.40;2252.80;;;;;;5035315;28;20029;-82
2022/01/14 13:33:20;;;;;;;91.47;59.50;;;128.40;2252.80;;;;;;5034576;28;20094;-79
2022/01/14 13:35:47;;;;;;;92.70;59.42;;;128.10;2252.80;;;;;;5035377;28;20028;-83
2022/01/14 13:38:20;;;;;;;87.25;56.40;;;103.20;2227.20;;;;;;5035016;28;20063;-79
2022/01/14 13:40:58;;;;;;;290.17;78.53;;;103.10;2227.20;;;;;;5053010;28;20021;-80
2022/01/14 13:43:32;;;;;;;105.10;62.92;;;103.00;2227.20;;;;;;5035056;28;20047;-80
2022/01/14 13:46:06;;;;;;;77.80;50.55;;;102.80;2227.20;;;;;;5035332;28;20025;-86
2022/01/14 13:48:43;;;;;;;98.53;60.45;;;102.60;2227.20;;;;;;5052653;28;20028;-80
2022/01/14 13:51:13;;;;;;;103.53;63.67;;;102.50;2227.20;;;;;;5034528;28;20021;-81
2022/01/14 13:53:44;;;;;;;98.60;58.75;;;102.50;2227.20;;;;;;5052659;28;20479;-79
2022/01/14 13:56:16;;;;;;;98.47;60.80;;;102.50;2227.20;;;;;;5036399;28;20017;-80
2022/01/14 13:58:46;;;;;;;95.28;58.88;;;102.60;2227.20;;;;;;5054241;28;20067;-76
2022/01/14 14:01:12;;;;;;;105.75;63.72;;;102.70;2227.20;;;;;;5055398;28;20032;-80
2022/01/14 14:03:53;;;;;;;107.70;69.65;;;102.80;2227.20;;;;;;5038544;28;20068;-78
2022/01/14 14:17:03;;;;;;;108.47;67.75;;;128.10;2252.80;;;;;;5055843;28;20408;-81
2022/01/14 14:19:45;;;;;;;144.07;87.22;;;128.00;2252.80;;;;;;5038428;28;20024;-80
2022/01/14 14:22:30;;;;;;;104.38;66.88;;;103.30;2227.20;;;;;;5038343;28;20024;-81
2022/01/14 14:25:04;;;;;;;111.30;73.85;;;103.20;2227.20;;;;;;5038025;28;20025;-82
2022/01/14 14:27:32;;;;;;;117.68;76.15;;;103.00;2227.20;;;;;;5037931;28;20113;-80
2022/01/14 14:30:00;;;;;;;115.13;72.60;;;103.10;2227.20;;;;;;5038310;28;20025;-81
2022/01/14 14:32:34;;;;;;;120.50;79.95;;;77.60;2227.20;;;;;;5037517;28;20017;-82
2022/01/14 14:35:03;;;;;;;117.05;80.47;;;77.40;2227.20;;;;;;5038454;28;20017;-80
2022/01/14 14:37:33;;;;;;;107.70;69.50;;;77.20;2227.20;;;;;;5038311;28;20071;-81
2022/01/14 14:40:00;;;;;;;110.13;74.75;;;77.00;2227.20;;;;;;5037819;28;20403;-81
2022/01/14 14:42:25;;;;;;;131.68;86.18;;;77.10;2227.20;;;;;;5038119;28;20036;-81
2022/01/14 14:44:51;;;;;;;185.82;116.82;;;77.10;2227.20;;;;;;5038207;28;20033;-81
2022/01/14 14:47:17;;;;;;;178.65;114.75;;;76.90;2227.20;;;;;;5037571;28;20031;-78
2022/01/14 14:49:44;;;;;;;192.65;122.00;;;77.10;2227.20;;;;;;5037418;28;20029;-82
2022/01/14 14:52:09;;;;;;;181.55;121.43;;;76.90;2227.20;;;;;;5056530;28;20016;-83
2022/01/14 14:54:36;;;;;;;206.98;130.98;;;76.80;2227.20;;;;;;5048171;28;20029;-83
2022/01/14 14:57:02;;;;;;;239.45;154.88;;;76.80;2227.20;;;;;;5056450;28;20373;-80
2022/01/14 14:59:28;;;;;;;249.80;162.30;;;52.10;2227.20;;;;;;5054889;28;20059;-82
2022/01/14 15:01:54;;;;;;;307.88;214.32;;;52.00;2227.20;;;;;;5054146;28;20025;-84
2022/01/14 15:04:20;;;;;;;286.20;187.73;;;52.00;2227.20;;;;;;5054501;28;20083;-81
2022/01/14 15:06:47;;;;;;;271.95;181.68;;;51.80;2227.20;;;;;;5053691;28;20029;-80
2022/01/14 15:09:13;;;;;;;254.00;151.65;;;51.80;2227.20;;;;;;5055318;28;20032;-81
2022/01/14 15:11:40;;;;;;;266.83;154.40;;;51.60;2227.20;;;;;;5054497;28;20107;-81
2022/01/14 15:14:06;;;;;;;253.70;146.77;;;51.60;2227.20;;;;;;5054749;28;20087;-83
2022/01/14 15:19:19;;;;;;;216.70;121.85;;;51.40;2227.20;;;;;;5055203;28;20032;-85
2022/01/14 15:21:45;;;;;;;217.13;125.18;;;51.30;2227.20;;;;;;5053947;28;20121;-85
2022/01/14 15:24:11;;;;;;;216.75;126.13;;;51.30;2227.20;;;;;;5053835;28;20112;-84
2022/01/14 15:26:36;;;;;;;225.65;131.13;;;26.50;2201.60;;;;;;5054292;28;20043;-83
2022/01/14 15:29:03;;;;;;;271.63;154.57;;;26.50;2201.60;;;;;;5054142;28;20025;-83
2022/01/14 15:31:29;;;;;;;329.35;183.70;;;26.40;2201.60;;;;;;5054208;28;20063;-80
2022/01/14 15:33:56;;;;;;;312.63;178.90;;;26.40;2201.60;;;;;;5054279;28;20025;-82
2022/01/14 15:36:22;;;;;;;302.95;175.95;;;26.30;2201.60;;;;;;5053797;28;20025;-83
2022/01/14 15:38:49;;;;;;;328.67;186.73;;;26.20;2201.60;;;;;;5054621;28;20013;-78
2022/01/14 15:41:17;;;;;;;315.90;186.88;;;26.20;2201.60;;;;;;5053545;28;20092;-80
2022/01/14 15:43:42;;;;;;;327.95;203.40;;;26.20;2201.60;;;;;;5054917;28;20032;-84
2022/01/14 15:46:09;;;;;;;379.27;241.43;;;26.10;2201.60;;;;;;5037525;28;20025;-83
2022/01/14 15:48:34;;;;;;;407.35;256.38;;;26.00;2201.60;;;;;;5036329;28;20025;-82
2022/01/14 15:51:00;;;;;;;470.02;317.42;;;26.10;2201.60;;;;;;5036840;28;20051;-84
2022/01/14 15:53:27;;;;;;;470.15;301.35;;;26.00;2201.60;;;;;;5054749;28;20029;-81
2022/01/14 15:55:54;;;;;;;458.65;286.90;;;26.00;2201.60;;;;;;5036947;28;20052;-80
2022/01/14 15:58:20;;;;;;;499.33;309.27;;;26.00;2201.60;;;;;;5033437;28;20049;-83
2022/01/14 16:00:46;;;;;;;510.08;321.67;;;26.00;2201.60;;;;;;5033995;28;20031;-82
2022/01/14 16:03:12;;;;;;;545.33;355.05;;;25.90;2201.60;;;;;;5033434;28;20108;-83
2022/01/14 16:05:38;;;;;;;522.15;328.45;;;25.80;2201.60;;;;;;5033509;28;20112;-81
2022/01/14 16:08:04;;;;;;;496.92;315.85;;;25.90;2201.60;;;;;;5033886;28;20021;-83
2022/01/14 16:10:30;;;;;;;488.08;310.05;;;25.90;2201.60;;;;;;5033217;28;20022;-77
2022/01/14 16:12:58;;;;;;;420.65;271.92;;;25.90;2201.60;;;;;;5034497;28;20022;-82
2022/01/14 16:15:24;;;;;;;382.13;236.05;;;25.90;2201.60;;;;;;5034469;28;20108;-82
2022/01/14 16:17:50;;;;;;;356.08;220.10;;;25.80;2201.60;;;;;;5034160;28;20121;-82
2022/01/14 16:20:18;;;;;;;382.05;233.07;;;25.80;2201.60;;;;;;5035591;28;20044;-81
2022/01/14 16:22:45;;;;;;;443.27;254.27;;;25.70;2201.60;;;;;;5035070;28;20057;-88
2022/01/14 16:25:12;;;;;;;435.20;251.60;;;25.70;2201.60;;;;;;5034926;28;20113;-89
2022/01/14 16:27:39;;;;;;;428.67;252.88;;;25.70;2201.60;;;;;;5035063;28;20075;-90
2022/01/14 16:30:09;;;;;;;453.50;283.25;;;25.60;2201.60;;;;;;5034834;28;20031;-92
2022/01/14 16:32:35;;;;;;;521.88;331.95;;;25.60;2201.60;;;;;;5034349;28;20021;-90
2022/01/14 16:35:01;;;;;;;568.78;370.58;;;0.90;2201.60;;;;;;5034450;28;20049;-89
2022/01/14 16:37:28;;;;;;;458.88;290.63;;;25.70;2201.60;;;;;;5035058;28;20053;-83
2022/01/14 16:39:55;;;;;;;547.13;359.40;;;0.90;2201.60;;;;;;5033688;28;20025;-87
2022/01/14 16:42:24;;;;;;;528.83;343.08;;;0.70;2201.60;;;;;;5034269;28;20022;-89
2022/01/14 16:44:51;;;;;;;516.20;336.75;;;0.80;2201.60;;;;;;5034459;28;20017;-87
2022/01/14 16:47:20;;;;;;;533.92;348.95;;;0.90;2201.60;;;;;;5033643;28;20061;-84
2022/01/14 16:49:46;;;;;;;463.50;298.95;;;0.70;2201.60;;;;;;5033656;28;20024;-86
2022/01/14 16:52:12;;;;;;;464.10;300.85;;;0.70;2201.60;;;;;;5033555;28;20476;-87
2022/01/14 16:54:39;;;;;;;462.58;292.65;;;0.70;2201.60;;;;;;5034019;28;20022;-82
2022/01/14 16:57:06;;;;;;;437.60;272.60;;;0.80;2201.60;;;;;;5034523;28;20057;-84
2022/01/14 16:59:32;;;;;;;467.50;292.23;;;0.70;2201.60;;;;;;5053949;28;20090;-84
2022/01/14 17:01:58;;;;;;;635.47;381.83;;;0.70;2201.60;;;;;;5039934;28;20044;-84
2022/01/14 17:04:24;;;;;;;545.63;336.42;;;0.70;2201.60;;;;;;5038570;28;20449;-87
2022/01/14 17:06:50;;;;;;;512.03;318.48;;;0.60;2201.60;;;;;;5036900;28;20449;-87
2022/01/14 17:09:17;;;;;;;524.85;327.42;;;0.40;2201.60;;;;;;5038256;28;20096;-85
2022/01/14 17:11:45;;;;;;;514.38;325.52;;;0.60;2201.60;;;;;;5038162;28;20029;-87
2022/01/14 17:14:10;;;;;;;537.20;346.90;;;0.60;2201.60;;;;;;5036641;28;20029;-90
2022/01/14 17:16:37;;;;;;;547.08;351.60;;;0.60;2201.60;;;;;;5037365;28;20021;-88
2022/01/14 17:19:04;;;;;;;466.95;298.85;;;0.50;2201.60;;;;;;5037046;28;20165;-84
2022/01/14 17:21:29;;;;;;;443.25;281.45;;;0.20;2201.60;;;;;;5036623;28;20045;-87
2022/01/14 17:23:55;;;;;;;464.02;304.20;;;0.10;2201.60;;;;;;5036375;28;20056;-87
2022/01/14 17:26:21;;;;;;;458.02;294.15;;;0.00;2201.60;;;;;;5036480;28;20021;-86
2022/01/14 17:28:47;;;;;;;470.08;289.23;;;0.20;2201.60;;;;;;5036406;28;20032;-82
2022/01/14 17:31:13;;;;;;;430.42;257.77;;;0.10;2201.60;;;;;;5035706;28;20024;-80
2022/01/14 17:33:39;;;;;;;449.05;266.35;;;0.20;2201.60;;;;;;5035989;28;20522;-84
2022/01/14 17:36:07;;;;;;;471.00;282.92;;;0.30;2201.60;;;;;;5035724;28;20024;-81
2022/01/14 17:38:33;;;;;;;464.70;277.25;;;0.10;2201.60;;;;;;5035854;28;20025;-85
2022/01/14 17:40:58;;;;;;;474.90;281.55;;;0.20;2201.60;;;;;;5035945;28;20108;-81
2022/01/14 17:43:30;;;;;;;439.15;264.08;;;0.10;2201.60;;;;;;5035704;28;20036;-85
2022/01/14 17:45:57;;;;;;;468.40;282.70;;;0.10;2201.60;;;;;;5037508;28;20017;-83
2022/01/14 17:48:23;;;;;;;510.27;314.25;;;0.10;2201.60;;;;;;5060144;28;20028;-85
2022/01/14 17:50:51;;;;;;;477.13;292.83;;;0.50;2201.60;;;;;;5043064;28;20021;-87
2022/01/14 17:53:20;;;;;;;466.50;292.77;;;0.10;2201.60;;;;;;5038031;28;20409;-88
2022/01/14 17:55:50;;;;;;;504.23;320.92;;;0.20;2201.60;;;;;;5036331;28;20025;-89
2022/01/14 17:58:17;;;;;;;558.22;362.88;;;0.20;2201.60;;;;;;5036416;28;20067;-87
2022/01/14 18:00:51;;;;;;;541.47;351.13;;;0.20;2201.60;;;;;;5036323;28;20029;-85
2022/01/14 18:03:17;;;;;;;539.17;342.15;;;0.10;2201.60;;;;;;5035475;28;20033;-83
2022/01/14 18:05:43;;;;;;;529.05;342.00;;;0.10;2201.60;;;;;;5035979;28;20047;-81
2022/01/14 18:08:10;;;;;;;534.95;352.10;;;13.10;2201.60;;;;;;5035873;28;20115;-83
2022/01/14 18:10:36;;;;;;;502.25;338.23;;;0.30;2201.60;;;;;;5035688;28;20021;-82
2022/01/14 18:13:25;;;;;;;567.95;390.13;;;12.90;2201.60;;;;;;5034056;28;20791;-80
2022/01/14 18:15:51;;;;;;;595.70;390.83;;;12.90;2201.60;;;;;;5035957;28;20083;-84
2022/01/14 18:18:17;;;;;;;518.38;328.08;;;13.10;2201.60;;;;;;5042135;28;20423;-83
2022/01/14 18:20:43;;;;;;;437.13;274.75;;;13.00;2201.60;;;;;;5035050;28;20411;-83
2022/01/14 18:23:11;;;;;;;418.10;260.98;;;12.90;2201.60;;;;;;5035632;28;20060;-83
2022/01/14 18:25:37;;;;;;;352.08;213.40;;;13.10;2201.60;;;;;;5035042;28;20029;-85
2022/01/14 18:28:04;;;;;;;307.92;190.40;;;13.00;2201.60;;;;;;5034921;28;20025;-80
2022/01/14 18:30:29;;;;;;;352.17;216.63;;;12.90;2201.60;;;;;;5035240;28;20413;-81
2022/01/14 18:32:57;;;;;;;429.00;265.88;;;13.00;2201.60;;;;;;5035134;28;20060;-84
2022/01/14 18:35:24;;;;;;;510.92;337.98;;;13.00;2201.60;;;;;;5015061;28;20025;-84
2022/01/14 18:37:50;;;;;;;518.92;345.90;;;12.90;2201.60;;;;;;5015130;28;20045;-84
2022/01/14 18:40:18;;;;;;;489.25;309.90;;;13.00;2201.60;;;;;;5028813;28;20017;-87
2022/01/14 18:42:45;;;;;;;492.33;320.52;;;13.10;2201.60;;;;;;5037130;28;20032;-85
2022/01/14 18:45:18;;;;;;;493.95;320.13;;;13.10;2201.60;;;;;;5038643;28;20469;-85
2022/01/14 18:47:44;;;;;;;;;;;13.10;2201.60;;;;;;5038976;28;20116;-86
2022/01/14 18:50:11;;;;;;;465.25;275.35;;;13.10;2201.60;;;;;;5038449;28;20331;-87
2022/01/14 18:52:37;;;;;;;535.70;335.67;;;13.10;2201.60;;;;;;5038290;28;20025;-85
2022/01/14 18:55:05;;;;;;;534.30;335.95;;;13.40;2201.60;;;;;;5038281;28;20093;-82
2022/01/14 18:57:30;;;;;;;509.90;314.35;;;13.40;2201.60;;;;;;5038547;28;20445;-86
2022/01/14 18:59:56;;;;;;;537.55;329.25;;;13.40;2201.60;;;;;;5038329;28;20028;-82
2022/01/14 19:02:23;;;;;;;544.85;335.45;;;13.30;2201.60;;;;;;5038142;28;20025;-79
2022/01/14 19:04:59;;;;;;;571.67;363.63;;;13.60;2201.60;;;;;;5038152;28;20464;-85
2022/01/14 19:07:25;;;;;;;627.90;403.15;;;13.50;2201.60;;;;;;5038146;28;20025;-82
2022/01/14 19:09:52;;;;;;;619.78;411.98;;;13.50;2201.60;;;;;;5037698;28;20458;-83
2022/01/14 19:12:20;;;;;;;615.05;404.42;;;13.40;2201.60;;;;;;5036430;28;20475;-83
2022/01/14 19:14:46;;;;;;;592.95;392.95;;;13.30;2201.60;;;;;;5037818;28;20051;-79
2022/01/14 19:17:13;;;;;;;625.85;411.83;;;13.20;2201.60;;;;;;5034217;28;20013;-87
2022/01/14 19:19:39;;;;;;;626.97;413.85;;;13.30;2201.60;;;;;;5038132;28;20021;-82
2022/01/14 19:22:05;;;;;;;654.33;424.10;;;13.40;2201.60;;;;;;5037956;28;20439;-84
2022/01/14 19:24:31;;;;;;;619.00;403.88;;;13.30;2201.60;;;;;;5037468;28;20035;-83
2022/01/14 19:26:57;;;;;;;612.03;392.60;;;13.40;2201.60;;;;;;5037766;28;20025;-86
2022/01/14 19:29:26;;;;;;;648.40;430.95;;;13.30;2201.60;;;;;;5037934;28;20090;-81
2022/01/14 19:31:51;;;;;;;659.22;434.05;;;13.20;2201.60;;;;;;5037672;28;20079;-83
2022/01/14 19:34:17;;;;;;;722.80;470.95;;;13.20;2201.60;;;;;;5037598;28;20033;-84
2022/01/14 19:36:43;;;;;;;729.45;482.33;;;13.30;2201.60;;;;;;5037810;28;20021;-82
2022/01/14 19:43:05;;;;;;;631.83;417.63;;;13.30;2201.60;;;;;;5055848;28;20036;-81
2022/01/14 19:46:43;;;;;;;437.98;270.17;;;13.40;2201.60;;;;;;5035879;28;20439;-83
2022/01/14 19:50:16;;;;;;;297.00;171.02;;;13.60;2201.60;;;;;;4955799;29;20523;-81
2022/01/14 20:02:56;;;;;;;427.13;254.43;;;13.70;2201.60;;;;;;4949647;28;20086;-85
2022/01/14 20:05:22;;;;;;;446.77;267.35;;;13.60;2201.60;;;;;;4996268;28;20030;-85
2022/01/14 20:07:49;;;;;;;461.77;282.00;;;13.50;2201.60;;;;;;4996809;28;20029;-88
2022/01/14 20:10:15;;;;;;;419.23;258.63;;;13.50;2201.60;;;;;;4996421;28;20450;-85
2022/01/14 20:12:41;;;;;;;382.73;230.02;;;13.70;2201.60;;;;;;4997307;28;20033;-85
2022/01/14 20:15:11;;;;;;;310.17;191.50;;;13.70;2201.60;;;;;;4997252;28;20026;-87
2022/01/14 20:17:38;;;;;;;315.75;193.75;;;38.40;2201.60;;;;;;4997262;28;20029;-86
2022/01/14 20:20:07;;;;;;;345.33;212.57;;;38.50;2201.60;;;;;;5024428;28;20032;-85
2022/01/14 20:22:34;;;;;;;350.48;210.05;;;38.60;2201.60;;;;;;5037347;28;20469;-85
2022/01/14 20:25:00;;;;;;;362.50;214.45;;;38.50;2201.60;;;;;;5037432;28;20361;-85
2022/01/14 20:27:27;;;;;;;428.48;259.40;;;38.50;2201.60;;;;;;5037515;28;20025;-88
2022/01/14 20:29:56;;;;;;;407.05;244.05;;;38.60;2201.60;;;;;;5037347;28;20078;-85
2022/01/14 20:37:58;;;;;;;404.17;235.25;;;38.50;2201.60;;;;;;5055276;28;20079;-80
2022/01/14 20:40:23;;;;;;;477.42;292.67;;;38.40;2201.60;;;;;;5036998;28;20021;-87
2022/01/14 20:43:04;;;;;;;511.40;307.17;;;38.60;2201.60;;;;;;5036887;28;20083;-84
2022/01/14 20:45:35;;;;;;;464.85;280.17;;;38.50;2201.60;;;;;;5035914;28;20033;-82
2022/01/14 20:48:13;;;;;;;468.00;282.55;;;38.50;2201.60;;;;;;5052566;28;20079;-86
2022/01/14 20:50:40;;;;;;;481.08;284.30;;;38.40;2201.60;;;;;;5036009;28;20052;-88
2022/01/14 20:53:16;;;;;;;485.83;291.60;;;38.50;2201.60;;;;;;5036357;28;20029;-84